sensor_id;sensor_type;location;lat;lon;timestamp;temperature;humidity
68128;SHT30;54931;52.098;21.006;2023-03-01T00:01:44;-3.29;77.41
68128;SHT30;54931;52.098;21.006;2023-03-01T00:04:12;-3.29;77.24
68128;SHT30;54931;52.098;21.006;2023-03-01T00:06:41;-3.30;77.33
68128;SHT30;54931;52.098;21.006;2023-03-01T00:09:13;-3.29;77.20
68128;SHT30;54931;52.098;21.006;2023-03-01T00:11:43;-3.30;77.06
68128;SHT30;54931;52.098;21.006;2023-03-01T00:14:12;-3.32;77.03
68128;SHT30;54931;52.098;21.006;2023-03-01T00:16:44;-3.34;77.02
68128;SHT30;54931;52.098;21.006;2023-03-01T00:19:15;-3.37;77.04
68128;SHT30;54931;52.098;21.006;2023-03-01T00:21:46;-3.37;77.17
68128;SHT30;54931;52.098;21.006;2023-03-01T00:24:14;-3.37;77.14
68128;SHT30;54931;52.098;21.006;2023-03-01T00:26:43;-3.39;77.15
68128;SHT30;54931;52.098;21.006;2023-03-01T00:29:12;-3.39;77.32
68128;SHT30;54931;52.098;21.006;2023-03-01T00:31:40;-3.38;77.38
68128;SHT30;54931;52.098;21.006;2023-03-01T00:34:09;-3.34;77.62
68128;SHT30;54931;52.098;21.006;2023-03-01T00:36:37;-3.26;77.45
68128;SHT30;54931;52.098;21.006;2023-03-01T00:39:07;-3.20;77.42
68128;SHT30;54931;52.098;21.006;2023-03-01T00:41:41;-3.14;77.35
68128;SHT30;54931;52.098;21.006;2023-03-01T00:44:10;-3.10;77.11
68128;SHT30;54931;52.098;21.006;2023-03-01T00:46:38;-3.10;76.91
68128;SHT30;54931;52.098;21.006;2023-03-01T00:49:07;-3.13;76.79
68128;SHT30;54931;52.098;21.006;2023-03-01T00:51:34;-3.15;76.97
68128;SHT30;54931;52.098;21.006;2023-03-01T00:54:03;-3.15;76.99
68128;SHT30;54931;52.098;21.006;2023-03-01T00:56:31;-3.12;77.09
68128;SHT30;54931;52.098;21.006;2023-03-01T00:58:59;-3.07;77.05
68128;SHT30;54931;52.098;21.006;2023-03-01T01:01:28;-3.05;76.92
68128;SHT30;54931;52.098;21.006;2023-03-01T01:03:59;-3.01;76.94
68128;SHT30;54931;52.098;21.006;2023-03-01T01:06:45;-2.96;76.88
68128;SHT30;54931;52.098;21.006;2023-03-01T01:09:15;-2.93;76.70
68128;SHT30;54931;52.098;21.006;2023-03-01T01:11:48;-2.92;76.55
68128;SHT30;54931;52.098;21.006;2023-03-01T01:14:18;-2.95;76.51
68128;SHT30;54931;52.098;21.006;2023-03-01T01:16:47;-2.95;76.50
68128;SHT30;54931;52.098;21.006;2023-03-01T01:19:16;-2.97;76.58
68128;SHT30;54931;52.098;21.006;2023-03-01T01:21:43;-3.00;76.49
68128;SHT30;54931;52.098;21.006;2023-03-01T01:24:12;-3.03;76.48
68128;SHT30;54931;52.098;21.006;2023-03-01T01:26:41;-3.04;76.60
68128;SHT30;54931;52.098;21.006;2023-03-01T01:29:10;-3.06;76.59
68128;SHT30;54931;52.098;21.006;2023-03-01T01:31:40;-3.11;76.53
68128;SHT30;54931;52.098;21.006;2023-03-01T01:34:12;-3.16;76.49
68128;SHT30;54931;52.098;21.006;2023-03-01T01:36:49;-3.21;76.65
68128;SHT30;54931;52.098;21.006;2023-03-01T01:39:21;-3.27;76.69
68128;SHT30;54931;52.098;21.006;2023-03-01T01:41:49;-3.36;76.70
68128;SHT30;54931;52.098;21.006;2023-03-01T01:44:21;-3.42;76.86
68128;SHT30;54931;52.098;21.006;2023-03-01T01:50:00;-3.53;77.13
68128;SHT30;54931;52.098;21.006;2023-03-01T01:52:34;-3.57;77.26
68128;SHT30;54931;52.098;21.006;2023-03-01T01:55:07;-3.60;77.27
68128;SHT30;54931;52.098;21.006;2023-03-01T01:57:45;-3.65;77.31
68128;SHT30;54931;52.098;21.006;2023-03-01T02:00:20;-3.69;77.52
68128;SHT30;54931;52.098;21.006;2023-03-01T02:02:59;-3.73;77.56
68128;SHT30;54931;52.098;21.006;2023-03-01T02:08:14;-3.79;77.87
68128;SHT30;54931;52.098;21.006;2023-03-01T02:10:45;-3.79;78.05
68128;SHT30;54931;52.098;21.006;2023-03-01T02:13:16;-3.75;78.29
68128;SHT30;54931;52.098;21.006;2023-03-01T02:15:45;-3.73;78.25
68128;SHT30;54931;52.098;21.006;2023-03-01T02:18:14;-3.71;78.30
68128;SHT30;54931;52.098;21.006;2023-03-01T02:23:30;-3.65;78.18
68128;SHT30;54931;52.098;21.006;2023-03-01T02:26:02;-3.65;78.30
68128;SHT30;54931;52.098;21.006;2023-03-01T02:28:51;-3.59;78.54
68128;SHT30;54931;52.098;21.006;2023-03-01T02:31:20;-3.55;78.53
68128;SHT30;54931;52.098;21.006;2023-03-01T02:36:49;-3.50;78.59
68128;SHT30;54931;52.098;21.006;2023-03-01T02:39:33;-3.45;78.39
68128;SHT30;54931;52.098;21.006;2023-03-01T02:42:15;-3.46;78.12
68128;SHT30;54931;52.098;21.006;2023-03-01T02:44:50;-3.46;78.32
68128;SHT30;54931;52.098;21.006;2023-03-01T02:47:18;-3.44;78.43
68128;SHT30;54931;52.098;21.006;2023-03-01T02:49:47;-3.41;78.68
68128;SHT30;54931;52.098;21.006;2023-03-01T02:52:27;-3.38;78.41
68128;SHT30;54931;52.098;21.006;2023-03-01T02:55:16;-3.33;78.55
68128;SHT30;54931;52.098;21.006;2023-03-01T02:57:46;-3.28;78.36
68128;SHT30;54931;52.098;21.006;2023-03-01T03:00:19;-3.24;78.33
68128;SHT30;54931;52.098;21.006;2023-03-01T03:02:53;-3.20;78.21
68128;SHT30;54931;52.098;21.006;2023-03-01T03:05:25;-3.15;78.07
68128;SHT30;54931;52.098;21.006;2023-03-01T03:07:57;-3.14;77.70
68128;SHT30;54931;52.098;21.006;2023-03-01T03:10:30;-3.15;77.66
68128;SHT30;54931;52.098;21.006;2023-03-01T03:13:08;-3.15;77.51
68128;SHT30;54931;52.098;21.006;2023-03-01T03:15:39;-3.15;77.66
68128;SHT30;54931;52.098;21.006;2023-03-01T03:18:10;-3.14;77.61
68128;SHT30;54931;52.098;21.006;2023-03-01T03:20:44;-3.17;77.41
68128;SHT30;54931;52.098;21.006;2023-03-01T03:23:13;-3.22;77.36
68128;SHT30;54931;52.098;21.006;2023-03-01T03:25:41;-3.25;77.49
68128;SHT30;54931;52.098;21.006;2023-03-01T03:28:09;-3.26;77.59
68128;SHT30;54931;52.098;21.006;2023-03-01T03:30:38;-3.23;77.67
68128;SHT30;54931;52.098;21.006;2023-03-01T03:33:09;-3.23;77.54
68128;SHT30;54931;52.098;21.006;2023-03-01T03:35:45;-3.23;77.41
68128;SHT30;54931;52.098;21.006;2023-03-01T03:38:17;-3.27;77.30
68128;SHT30;54931;52.098;21.006;2023-03-01T03:40:49;-3.31;77.24
68128;SHT30;54931;52.098;21.006;2023-03-01T03:43:35;-3.35;77.34
68128;SHT30;54931;52.098;21.006;2023-03-01T03:46:05;-3.38;77.48
68128;SHT30;54931;52.098;21.006;2023-03-01T03:48:35;-3.41;77.45
68128;SHT30;54931;52.098;21.006;2023-03-01T03:51:08;-3.44;77.44
68128;SHT30;54931;52.098;21.006;2023-03-01T03:53:39;-3.47;77.50
68128;SHT30;54931;52.098;21.006;2023-03-01T03:56:07;-3.47;77.63
68128;SHT30;54931;52.098;21.006;2023-03-01T03:58:35;-3.48;77.60
68128;SHT30;54931;52.098;21.006;2023-03-01T04:01:03;-3.47;77.77
68128;SHT30;54931;52.098;21.006;2023-03-01T04:03:32;-3.45;77.72
68128;SHT30;54931;52.098;21.006;2023-03-01T04:06:02;-3.42;77.77
68128;SHT30;54931;52.098;21.006;2023-03-01T04:08:32;-3.39;77.72
68128;SHT30;54931;52.098;21.006;2023-03-01T04:11:00;-3.37;77.51
68128;SHT30;54931;52.098;21.006;2023-03-01T04:13:52;-3.38;77.47
68128;SHT30;54931;52.098;21.006;2023-03-01T04:16:24;-3.40;77.41
68128;SHT30;54931;52.098;21.006;2023-03-01T04:18:52;-3.40;77.45
68128;SHT30;54931;52.098;21.006;2023-03-01T04:21:20;-3.40;77.45
68128;SHT30;54931;52.098;21.006;2023-03-01T04:23:49;-3.40;77.48
68128;SHT30;54931;52.098;21.006;2023-03-01T04:26:19;-3.40;77.50
68128;SHT30;54931;52.098;21.006;2023-03-01T04:28:47;-3.42;77.40
68128;SHT30;54931;52.098;21.006;2023-03-01T04:31:18;-3.43;77.38
68128;SHT30;54931;52.098;21.006;2023-03-01T04:33:49;-3.44;77.46
68128;SHT30;54931;52.098;21.006;2023-03-01T04:36:21;-3.43;77.61
68128;SHT30;54931;52.098;21.006;2023-03-01T04:38:55;-3.44;77.51
68128;SHT30;54931;52.098;21.006;2023-03-01T04:41:24;-3.45;77.58
68128;SHT30;54931;52.098;21.006;2023-03-01T04:43:53;-3.48;77.60
68128;SHT30;54931;52.098;21.006;2023-03-01T04:46:22;-3.50;77.70
68128;SHT30;54931;52.098;21.006;2023-03-01T04:48:50;-3.50;77.85
68128;SHT30;54931;52.098;21.006;2023-03-01T04:51:18;-3.48;78.03
68128;SHT30;54931;52.098;21.006;2023-03-01T04:53:46;-3.44;77.96
68128;SHT30;54931;52.098;21.006;2023-03-01T04:56:15;-3.43;77.94
68128;SHT30;54931;52.098;21.006;2023-03-01T04:58:45;-3.42;77.97
68128;SHT30;54931;52.098;21.006;2023-03-01T05:01:17;-3.41;77.96
68128;SHT30;54931;52.098;21.006;2023-03-01T05:03:48;-3.40;77.85
68128;SHT30;54931;52.098;21.006;2023-03-01T05:06:19;-3.41;77.85
68128;SHT30;54931;52.098;21.006;2023-03-01T05:08:48;-3.41;78.01
68128;SHT30;54931;52.098;21.006;2023-03-01T05:11:16;-3.37;78.05
68128;SHT30;54931;52.098;21.006;2023-03-01T05:13:44;-3.30;78.13
68128;SHT30;54931;52.098;21.006;2023-03-01T05:16:12;-3.17;77.86
68128;SHT30;54931;52.098;21.006;2023-03-01T05:18:40;-3.10;77.65
68128;SHT30;54931;52.098;21.006;2023-03-01T05:21:10;-3.03;77.50
68128;SHT30;54931;52.098;21.006;2023-03-01T05:23:42;-2.97;77.34
68128;SHT30;54931;52.098;21.006;2023-03-01T05:26:11;-2.91;77.28
68128;SHT30;54931;52.098;21.006;2023-03-01T05:28:40;-2.80;77.16
68128;SHT30;54931;52.098;21.006;2023-03-01T05:31:08;-2.70;76.92
68128;SHT30;54931;52.098;21.006;2023-03-01T05:33:37;-2.64;76.68
68128;SHT30;54931;52.098;21.006;2023-03-01T05:36:08;-2.61;76.48
68128;SHT30;54931;52.098;21.006;2023-03-01T05:38:37;-2.60;76.38
68128;SHT30;54931;52.098;21.006;2023-03-01T05:41:05;-2.53;76.29
68128;SHT30;54931;52.098;21.006;2023-03-01T05:43:44;-2.48;76.16
68128;SHT30;54931;52.098;21.006;2023-03-01T05:46:12;-2.42;76.01
68128;SHT30;54931;52.098;21.006;2023-03-01T05:48:42;-2.37;75.87
68128;SHT30;54931;52.098;21.006;2023-03-01T05:51:10;-2.31;75.79
68128;SHT30;54931;52.098;21.006;2023-03-01T05:53:39;-2.26;75.70
68128;SHT30;54931;52.098;21.006;2023-03-01T05:56:07;-2.22;75.59
68128;SHT30;54931;52.098;21.006;2023-03-01T05:58:35;-2.18;75.52
68128;SHT30;54931;52.098;21.006;2023-03-01T06:01:05;-2.13;75.48
68128;SHT30;54931;52.098;21.006;2023-03-01T06:03:38;-2.06;75.36
68128;SHT30;54931;52.098;21.006;2023-03-01T06:06:06;-2.01;75.23
68128;SHT30;54931;52.098;21.006;2023-03-01T06:08:35;-1.94;75.10
68128;SHT30;54931;52.098;21.006;2023-03-01T06:11:03;-1.87;75.02
68128;SHT30;54931;52.098;21.006;2023-03-01T06:13:32;-1.79;74.88
68128;SHT30;54931;52.098;21.006;2023-03-01T06:16:00;-1.72;74.73
68128;SHT30;54931;52.098;21.006;2023-03-01T06:18:27;-1.64;74.70
68128;SHT30;54931;52.098;21.006;2023-03-01T06:20:56;-1.55;74.38
68128;SHT30;54931;52.098;21.006;2023-03-01T06:23:24;-1.46;74.00
68128;SHT30;54931;52.098;21.006;2023-03-01T06:25:52;-1.38;73.81
68128;SHT30;54931;52.098;21.006;2023-03-01T06:28:20;-1.29;73.69
68128;SHT30;54931;52.098;21.006;2023-03-01T06:30:51;-1.18;73.60
68128;SHT30;54931;52.098;21.006;2023-03-01T06:33:20;-1.03;73.60
68128;SHT30;54931;52.098;21.006;2023-03-01T06:35:49;-0.88;73.27
68128;SHT30;54931;52.098;21.006;2023-03-01T06:38:17;-0.68;72.82
68128;SHT30;54931;52.098;21.006;2023-03-01T06:40:51;-0.40;72.58
68128;SHT30;54931;52.098;21.006;2023-03-01T06:43:24;-0.08;71.94
68128;SHT30;54931;52.098;21.006;2023-03-01T06:45:52;0.19;70.72
68128;SHT30;54931;52.098;21.006;2023-03-01T06:48:19;0.40;70.07
68128;SHT30;54931;52.098;21.006;2023-03-01T06:50:47;0.67;69.61
68128;SHT30;54931;52.098;21.006;2023-03-01T06:53:15;0.84;67.93
68128;SHT30;54931;52.098;21.006;2023-03-01T06:55:43;0.94;67.18
68128;SHT30;54931;52.098;21.006;2023-03-01T06:58:11;1.02;66.92
68128;SHT30;54931;52.098;21.006;2023-03-01T07:00:39;1.21;67.23
68128;SHT30;54931;52.098;21.006;2023-03-01T07:03:07;1.43;66.33
68128;SHT30;54931;52.098;21.006;2023-03-01T07:05:35;1.60;65.58
68128;SHT30;54931;52.098;21.006;2023-03-01T07:08:04;1.67;64.77
68128;SHT30;54931;52.098;21.006;2023-03-01T07:10:32;1.75;64.49
68128;SHT30;54931;52.098;21.006;2023-03-01T07:13:00;1.84;64.04
68128;SHT30;54931;52.098;21.006;2023-03-01T07:15:28;1.98;63.14
68128;SHT30;54931;52.098;21.006;2023-03-01T07:17:56;2.17;63.64
68128;SHT30;54931;52.098;21.006;2023-03-01T07:20:24;2.32;61.75
68128;SHT30;54931;52.098;21.006;2023-03-01T07:22:52;2.35;62.17
68128;SHT30;54931;52.098;21.006;2023-03-01T07:25:21;2.48;62.26
68128;SHT30;54931;52.098;21.006;2023-03-01T07:27:50;2.58;61.32
68128;SHT30;54931;52.098;21.006;2023-03-01T07:30:20;2.66;60.85
68128;SHT30;54931;52.098;21.006;2023-03-01T07:32:48;2.73;60.44
68128;SHT30;54931;52.098;21.006;2023-03-01T07:35:16;2.91;60.34
68128;SHT30;54931;52.098;21.006;2023-03-01T07:37:44;3.10;60.05
68128;SHT30;54931;52.098;21.006;2023-03-01T07:40:12;3.38;59.65
68128;SHT30;54931;52.098;21.006;2023-03-01T07:42:41;3.68;59.46
68128;SHT30;54931;52.098;21.006;2023-03-01T07:45:09;3.72;57.40
68128;SHT30;54931;52.098;21.006;2023-03-01T07:47:38;3.68;58.43
68128;SHT30;54931;52.098;21.006;2023-03-01T07:50:07;3.76;57.16
68128;SHT30;54931;52.098;21.006;2023-03-01T07:52:36;3.81;56.94
68128;SHT30;54931;52.098;21.006;2023-03-01T07:55:04;3.97;57.79
68128;SHT30;54931;52.098;21.006;2023-03-01T07:57:33;4.32;56.86
68128;SHT30;54931;52.098;21.006;2023-03-01T08:00:01;4.42;55.51
68128;SHT30;54931;52.098;21.006;2023-03-01T08:02:30;4.58;58.35
68128;SHT30;54931;52.098;21.006;2023-03-01T08:04:58;4.65;59.09
68128;SHT30;54931;52.098;21.006;2023-03-01T08:07:26;4.80;58.07
68128;SHT30;54931;52.098;21.006;2023-03-01T08:09:54;4.85;57.56
68128;SHT30;54931;52.098;21.006;2023-03-01T08:12:22;4.89;56.97
68128;SHT30;54931;52.098;21.006;2023-03-01T08:14:50;4.94;57.35
68128;SHT30;54931;52.098;21.006;2023-03-01T08:17:18;5.19;57.52
68128;SHT30;54931;52.098;21.006;2023-03-01T08:19:46;5.39;56.99
68128;SHT30;54931;52.098;21.006;2023-03-01T08:22:14;5.60;56.61
68128;SHT30;54931;52.098;21.006;2023-03-01T08:24:42;5.92;57.15
68128;SHT30;54931;52.098;21.006;2023-03-01T08:27:10;6.29;56.13
68128;SHT30;54931;52.098;21.006;2023-03-01T08:29:39;6.32;54.19
68128;SHT30;54931;52.098;21.006;2023-03-01T08:32:06;6.38;54.48
68128;SHT30;54931;52.098;21.006;2023-03-01T08:34:34;6.47;54.15
68128;SHT30;54931;52.098;21.006;2023-03-01T08:37:02;6.48;52.98
68128;SHT30;54931;52.098;21.006;2023-03-01T08:39:30;6.35;53.06
68128;SHT30;54931;52.098;21.006;2023-03-01T08:41:59;6.51;54.11
68128;SHT30;54931;52.098;21.006;2023-03-01T08:44:26;6.74;53.93
68128;SHT30;54931;52.098;21.006;2023-03-01T08:46:54;7.03;53.57
68128;SHT30;54931;52.098;21.006;2023-03-01T08:49:22;7.24;52.45
68128;SHT30;54931;52.098;21.006;2023-03-01T08:51:50;7.19;51.46
68128;SHT30;54931;52.098;21.006;2023-03-01T08:54:19;7.33;52.12
68128;SHT30;54931;52.098;21.006;2023-03-01T08:56:48;7.29;50.66
68128;SHT30;54931;52.098;21.006;2023-03-01T08:59:16;7.33;51.34
68128;SHT30;54931;52.098;21.006;2023-03-01T09:01:45;7.38;50.74
68128;SHT30;54931;52.098;21.006;2023-03-01T09:04:14;7.31;51.11
68128;SHT30;54931;52.098;21.006;2023-03-01T09:06:42;7.31;51.28
68128;SHT30;54931;52.098;21.006;2023-03-01T09:09:12;7.36;50.58
68128;SHT30;54931;52.098;21.006;2023-03-01T09:11:44;7.43;51.25
68128;SHT30;54931;52.098;21.006;2023-03-01T09:14:14;7.55;50.60
68128;SHT30;54931;52.098;21.006;2023-03-01T09:16:42;7.56;50.69
68128;SHT30;54931;52.098;21.006;2023-03-01T09:19:10;7.47;50.57
68128;SHT30;54931;52.098;21.006;2023-03-01T09:21:38;7.43;51.44
68128;SHT30;54931;52.098;21.006;2023-03-01T09:24:11;7.57;51.68
68128;SHT30;54931;52.098;21.006;2023-03-01T09:26:42;7.48;51.38
68128;SHT30;54931;52.098;21.006;2023-03-01T09:29:13;7.41;51.68
68128;SHT30;54931;52.098;21.006;2023-03-01T09:31:42;7.46;52.12
68128;SHT30;54931;52.098;21.006;2023-03-01T09:34:10;7.53;51.70
68128;SHT30;54931;52.098;21.006;2023-03-01T09:36:38;7.66;52.29
68128;SHT30;54931;52.098;21.006;2023-03-01T09:39:06;7.71;51.48
68128;SHT30;54931;52.098;21.006;2023-03-01T09:47:30;7.32;52.42
68128;SHT30;54931;52.098;21.006;2023-03-01T09:55:44;7.18;54.04
68128;SHT30;54931;52.098;21.006;2023-03-01T10:01:06;7.23;53.45
68128;SHT30;54931;52.098;21.006;2023-03-01T10:10:07;7.52;54.46
68128;SHT30;54931;52.098;21.006;2023-03-01T10:12:43;7.59;54.06
68128;SHT30;54931;52.098;21.006;2023-03-01T10:15:25;7.47;54.13
68128;SHT30;54931;52.098;21.006;2023-03-01T10:18:15;7.32;53.74
68128;SHT30;54931;52.098;21.006;2023-03-01T10:21:01;7.27;55.07
68128;SHT30;54931;52.098;21.006;2023-03-01T10:24:01;7.51;54.64
68128;SHT30;54931;52.098;21.006;2023-03-01T10:26:55;7.61;54.38
68128;SHT30;54931;52.098;21.006;2023-03-01T10:29:30;7.63;54.24
68128;SHT30;54931;52.098;21.006;2023-03-01T10:32:08;7.74;54.26
68128;SHT30;54931;52.098;21.006;2023-03-01T10:34:38;7.79;54.06
68128;SHT30;54931;52.098;21.006;2023-03-01T10:37:13;7.86;53.93
68128;SHT30;54931;52.098;21.006;2023-03-01T10:39:55;7.91;54.08
68128;SHT30;54931;52.098;21.006;2023-03-01T10:42:45;7.85;53.64
68128;SHT30;54931;52.098;21.006;2023-03-01T10:45:23;7.87;54.25
68128;SHT30;54931;52.098;21.006;2023-03-01T10:50:49;7.98;53.68
68128;SHT30;54931;52.098;21.006;2023-03-01T10:56:16;8.09;53.50
68128;SHT30;54931;52.098;21.006;2023-03-01T11:02:02;8.14;53.30
68128;SHT30;54931;52.098;21.006;2023-03-01T11:04:36;8.05;53.41
68128;SHT30;54931;52.098;21.006;2023-03-01T11:07:06;7.92;54.05
68128;SHT30;54931;52.098;21.006;2023-03-01T11:09:34;7.99;54.42
68128;SHT30;54931;52.098;21.006;2023-03-01T11:12:05;8.15;54.11
68128;SHT30;54931;52.098;21.006;2023-03-01T11:14:49;8.27;53.77
68128;SHT30;54931;52.098;21.006;2023-03-01T11:17:27;8.27;53.68
68128;SHT30;54931;52.098;21.006;2023-03-01T11:19:59;8.35;53.73
68128;SHT30;54931;52.098;21.006;2023-03-01T11:22:53;8.43;53.17
68128;SHT30;54931;52.098;21.006;2023-03-01T11:25:35;8.53;53.18
68128;SHT30;54931;52.098;21.006;2023-03-01T11:28:26;8.62;53.07
68128;SHT30;54931;52.098;21.006;2023-03-01T11:31:14;8.55;52.57
68128;SHT30;54931;52.098;21.006;2023-03-01T11:36:34;8.66;53.36
68128;SHT30;54931;52.098;21.006;2023-03-01T11:39:28;8.75;52.93
68128;SHT30;54931;52.098;21.006;2023-03-01T11:42:38;8.86;52.95
68128;SHT30;54931;52.098;21.006;2023-03-01T11:45:51;8.77;52.67
68128;SHT30;54931;52.098;21.006;2023-03-01T11:51:41;8.35;53.34
68128;SHT30;54931;52.098;21.006;2023-03-01T12:10:43;8.19;55.54
68128;SHT30;54931;52.098;21.006;2023-03-01T12:16:48;8.29;55.26
68128;SHT30;54931;52.098;21.006;2023-03-01T12:22:20;8.16;55.55
68128;SHT30;54931;52.098;21.006;2023-03-01T12:34:09;8.64;54.95
68128;SHT30;54931;52.098;21.006;2023-03-01T12:37:03;8.72;54.40
68128;SHT30;54931;52.098;21.006;2023-03-01T12:50:40;8.34;55.04
68128;SHT30;54931;52.098;21.006;2023-03-01T12:53:36;8.26;55.72
68128;SHT30;54931;52.098;21.006;2023-03-01T12:56:15;8.29;55.81
68128;SHT30;54931;52.098;21.006;2023-03-01T13:02:38;8.52;55.97
68128;SHT30;54931;52.098;21.006;2023-03-01T13:08:17;8.90;54.88
68128;SHT30;54931;52.098;21.006;2023-03-01T13:10:59;8.81;55.27
68128;SHT30;54931;52.098;21.006;2023-03-01T13:13:31;8.76;55.45
68128;SHT30;54931;52.098;21.006;2023-03-01T13:16:19;8.73;55.77
68128;SHT30;54931;52.098;21.006;2023-03-01T13:19:15;8.70;55.44
68128;SHT30;54931;52.098;21.006;2023-03-01T13:21:49;8.72;55.92
68128;SHT30;54931;52.098;21.006;2023-03-01T13:24:40;8.82;55.86
68128;SHT30;54931;52.098;21.006;2023-03-01T13:27:21;8.82;55.45
68128;SHT30;54931;52.098;21.006;2023-03-01T13:29:53;8.73;55.65
68128;SHT30;54931;52.098;21.006;2023-03-01T13:32:33;8.80;55.82
68128;SHT30;54931;52.098;21.006;2023-03-01T13:37:38;8.74;55.80
68128;SHT30;54931;52.098;21.006;2023-03-01T13:42:46;8.79;56.19
68128;SHT30;54931;52.098;21.006;2023-03-01T13:45:18;8.91;56.20
68128;SHT30;54931;52.098;21.006;2023-03-01T13:48:02;9.11;56.19
68128;SHT30;54931;52.098;21.006;2023-03-01T13:51:08;9.23;55.12
68128;SHT30;54931;52.098;21.006;2023-03-01T13:53:45;9.18;55.15
68128;SHT30;54931;52.098;21.006;2023-03-01T13:56:15;9.25;55.29
68128;SHT30;54931;52.098;21.006;2023-03-01T14:01:30;9.25;55.13
68128;SHT30;54931;52.098;21.006;2023-03-01T14:04:02;9.31;54.63
68128;SHT30;54931;52.098;21.006;2023-03-01T14:09:47;9.48;54.34
68128;SHT30;54931;52.098;21.006;2023-03-01T14:21:00;9.96;53.84
68128;SHT30;54931;52.098;21.006;2023-03-01T14:23:34;9.80;53.83
68128;SHT30;54931;52.098;21.006;2023-03-01T14:26:03;9.66;54.34
68128;SHT30;54931;52.098;21.006;2023-03-01T14:28:31;9.40;54.30
68128;SHT30;54931;52.098;21.006;2023-03-01T14:31:01;9.23;54.92
68128;SHT30;54931;52.098;21.006;2023-03-01T14:33:31;9.25;55.02
68128;SHT30;54931;52.098;21.006;2023-03-01T14:36:09;9.23;54.59
68128;SHT30;54931;52.098;21.006;2023-03-01T14:38:41;9.16;54.66
68128;SHT30;54931;52.098;21.006;2023-03-01T14:41:13;8.99;55.21
68128;SHT30;54931;52.098;21.006;2023-03-01T14:43:53;8.76;55.79
68128;SHT30;54931;52.098;21.006;2023-03-01T14:46:32;8.43;56.50
68128;SHT30;54931;52.098;21.006;2023-03-01T14:54:28;7.82;58.49
68128;SHT30;54931;52.098;21.006;2023-03-01T14:57:14;7.68;58.86
68128;SHT30;54931;52.098;21.006;2023-03-01T14:59:53;7.56;59.24
68128;SHT30;54931;52.098;21.006;2023-03-01T15:02:35;7.41;59.46
68128;SHT30;54931;52.098;21.006;2023-03-01T15:05:05;7.30;59.83
68128;SHT30;54931;52.098;21.006;2023-03-01T15:07:36;7.20;60.31
68128;SHT30;54931;52.098;21.006;2023-03-01T15:10:14;7.10;60.82
68128;SHT30;54931;52.098;21.006;2023-03-01T15:12:49;7.00;61.15
68128;SHT30;54931;52.098;21.006;2023-03-01T15:18:00;6.84;61.69
68128;SHT30;54931;52.098;21.006;2023-03-01T15:20:33;6.76;61.95
68128;SHT30;54931;52.098;21.006;2023-03-01T15:23:03;6.68;62.16
68128;SHT30;54931;52.098;21.006;2023-03-01T15:25:31;6.61;62.29
68128;SHT30;54931;52.098;21.006;2023-03-01T15:28:01;6.54;62.48
68128;SHT30;54931;52.098;21.006;2023-03-01T15:30:32;6.60;62.66
68128;SHT30;54931;52.098;21.006;2023-03-01T15:36:01;6.80;62.20
68128;SHT30;54931;52.098;21.006;2023-03-01T15:38:52;6.76;62.39
68128;SHT30;54931;52.098;21.006;2023-03-01T15:41:27;6.70;62.52
68128;SHT30;54931;52.098;21.006;2023-03-01T15:46:58;6.36;63.21
68128;SHT30;54931;52.098;21.006;2023-03-01T15:49:41;6.20;63.43
68128;SHT30;54931;52.098;21.006;2023-03-01T15:52:25;6.04;63.86
68128;SHT30;54931;52.098;21.006;2023-03-01T15:55:02;5.89;64.25
68128;SHT30;54931;52.098;21.006;2023-03-01T15:57:46;5.72;64.55
68128;SHT30;54931;52.098;21.006;2023-03-01T16:00:15;5.56;64.95
68128;SHT30;54931;52.098;21.006;2023-03-01T16:02:44;5.43;65.25
68128;SHT30;54931;52.098;21.006;2023-03-01T16:05:17;5.29;65.42
68128;SHT30;54931;52.098;21.006;2023-03-01T16:07:52;5.14;65.80
68128;SHT30;54931;52.098;21.006;2023-03-01T16:10:21;5.02;66.26
68128;SHT30;54931;52.098;21.006;2023-03-01T16:12:50;4.90;66.49
68128;SHT30;54931;52.098;21.006;2023-03-01T16:17:51;4.65;67.03
68128;SHT30;54931;52.098;21.006;2023-03-01T16:20:22;4.54;67.33
68128;SHT30;54931;52.098;21.006;2023-03-01T16:22:51;4.44;67.67
68128;SHT30;54931;52.098;21.006;2023-03-01T16:25:20;4.34;67.99
68128;SHT30;54931;52.098;21.006;2023-03-01T16:27:49;4.24;68.36
68128;SHT30;54931;52.098;21.006;2023-03-01T16:30:19;4.13;68.68
68128;SHT30;54931;52.098;21.006;2023-03-01T16:32:49;4.05;69.03
68128;SHT30;54931;52.098;21.006;2023-03-01T16:35:19;3.97;69.42
68128;SHT30;54931;52.098;21.006;2023-03-01T16:37:49;3.91;69.67
68128;SHT30;54931;52.098;21.006;2023-03-01T16:40:21;3.86;69.96
68128;SHT30;54931;52.098;21.006;2023-03-01T16:42:54;3.80;69.84
68128;SHT30;54931;52.098;21.006;2023-03-01T16:45:32;3.72;70.01
68128;SHT30;54931;52.098;21.006;2023-03-01T16:48:03;3.65;70.11
68128;SHT30;54931;52.098;21.006;2023-03-01T16:50:31;3.58;70.31
68128;SHT30;54931;52.098;21.006;2023-03-01T16:52:59;3.51;70.57
68128;SHT30;54931;52.098;21.006;2023-03-01T16:55:28;3.43;70.75
68128;SHT30;54931;52.098;21.006;2023-03-01T16:57:56;3.35;70.89
68128;SHT30;54931;52.098;21.006;2023-03-01T17:00:24;3.29;71.18
68128;SHT30;54931;52.098;21.006;2023-03-01T17:02:53;3.23;71.34
68128;SHT30;54931;52.098;21.006;2023-03-01T17:05:22;3.16;71.44
68128;SHT30;54931;52.098;21.006;2023-03-01T17:07:51;3.08;71.74
68128;SHT30;54931;52.098;21.006;2023-03-01T17:10:22;3.01;71.99
68128;SHT30;54931;52.098;21.006;2023-03-01T17:12:50;2.94;72.24
68128;SHT30;54931;52.098;21.006;2023-03-01T17:15:18;2.85;72.39
68128;SHT30;54931;52.098;21.006;2023-03-01T17:17:47;2.77;72.56
68128;SHT30;54931;52.098;21.006;2023-03-01T17:20:18;2.68;72.70
68128;SHT30;54931;52.098;21.006;2023-03-01T17:22:46;2.58;72.95
68128;SHT30;54931;52.098;21.006;2023-03-01T17:25:14;2.51;73.10
68128;SHT30;54931;52.098;21.006;2023-03-01T17:27:43;2.41;73.16
68128;SHT30;54931;52.098;21.006;2023-03-01T17:30:12;2.32;73.27
68128;SHT30;54931;52.098;21.006;2023-03-01T17:32:43;2.24;73.32
68128;SHT30;54931;52.098;21.006;2023-03-01T17:35:11;2.14;73.48
68128;SHT30;54931;52.098;21.006;2023-03-01T17:37:40;2.06;73.63
68128;SHT30;54931;52.098;21.006;2023-03-01T17:40:12;1.99;73.68
68128;SHT30;54931;52.098;21.006;2023-03-01T17:42:40;1.93;73.82
68128;SHT30;54931;52.098;21.006;2023-03-01T17:45:08;1.88;73.90
68128;SHT30;54931;52.098;21.006;2023-03-01T17:47:37;1.82;73.96
68128;SHT30;54931;52.098;21.006;2023-03-01T17:50:06;1.74;73.99
68128;SHT30;54931;52.098;21.006;2023-03-01T17:52:35;1.69;73.99
68128;SHT30;54931;52.098;21.006;2023-03-01T17:55:04;1.63;74.00
68128;SHT30;54931;52.098;21.006;2023-03-01T17:57:32;1.58;74.06
68128;SHT30;54931;52.098;21.006;2023-03-01T18:00:02;1.53;74.10
68128;SHT30;54931;52.098;21.006;2023-03-01T18:02:35;1.48;74.10
68128;SHT30;54931;52.098;21.006;2023-03-01T18:05:03;1.44;74.21
68128;SHT30;54931;52.098;21.006;2023-03-01T18:07:32;1.39;74.24
68128;SHT30;54931;52.098;21.006;2023-03-01T18:10:01;1.35;74.28